Terminal Aerodrome Forecast
Issued by NWS

Home | Current Version | Previous Version | Text Only | Print | Product List | Glossary Off
Versions: 1 2 3 4 5 6 7 8 9 10 11 12 13 14 15 16 17 18 19

228
FTUS43 KMPX 161133
TAFRNH
TAF
KRNH 161133Z 1612/1712 10005KT P6SM VCSH SCT030 OVC070
     FM161300 12007KT 5SM -SHRA BR SCT020 OVC030
     FM161500 13009KT P6SM SCT030 OVC060
     FM161900 13009KT P6SM VCSH OVC050
     FM162200 16008KT 6SM -SHRA BR SCT020 BKN035
      TEMPO 1701/1705 3SM TSRA OVC020CB
     FM170500 11006KT 4SM RA BR OVC015
     FM170800 VRB04KT 4SM RA BR OVC006=

USA.gov is the U.S. government's official web portal to all federal, state and local government web resources and services.